Terminal Aerodrome Forecast
Issued by NWS

Home | Current Version | Previous Version | Text Only | Print | Product List | Glossary On
Versions: 1 2 3 4 5 6 7 8 9 10 11 12 13 14 15 16
000
FTUS43 KABR 181720
TAFATY
TAF
KATY 181720Z 1818/1918 35020G26KT P6SM FEW250
     FM182300 29011KT P6SM FEW200
     FM190100 27006KT P6SM FEW150
     FM191500 19011KT P6SM FEW250=

USA.gov is the U.S. government's official web portal to all federal, state and local government web resources and services.